Data for 08/29/2008

Time Sea-Level Adjusted Pressure Absolute Pressure Temperature Relative Humidity Dew Point   
(mb) (inHg) (mb) (inHg) (C) (F) (%) (C) (F)
00:05 1022 30.18 851 25.13 13.8 56.8 56 5.2 41.3
00:10 1022 30.18 851 25.13 13.7 56.7 56 5.2 41.4
00:15 1022 30.18 851 25.13 13.6 56.5 56 5.1 41.2
00:20 1022 30.18 851 25.13 13.9 57.1 53 4.7 40.4
00:25 1022 30.18 851 25.13 14.4 57.9 54 5.2 41.4
00:30 1022 30.18 851 25.13 14 57.3 55 5.3 41.5
00:35 1022 30.18 851 25.13 13.7 56.6 57 5.3 41.6
00:40 1022 30.18 851 25.13 13.2 55.8 58 5.2 41.4
00:45 1022 30.18 851 25.13 13.1 55.5 59 5.2 41.3
00:50 1022 30.18 851 25.13 12.8 55.1 59 5.1 41.3
00:55 1022 30.18 851 25.13 12.7 54.9 59 5.1 41.2
01:00 1022 30.18 851 25.13 12.8 55 57 4.5 40.1
01:05 1022 30.18 851 25.13 13.2 55.7 57 5 41
01:10 1022 30.18 851 25.13 13 55.3 58 4.9 40.8
01:15 1022 30.18 851 25.13 12.9 55.2 59 5 41.1
01:20 1022 30.18 851 25.13 12.7 54.8 59 4.9 40.8
01:25 1022 30.18 851 25.13 12.5 54.5 59 4.8 40.7
01:30 1022 30.18 851 25.13 12.6 54.7 59 4.8 40.7
01:35 1022 30.18 851 25.13 12.7 54.8 59 5 41
01:40 1022 30.18 851 25.13 12.4 54.3 60 5 41
01:45 1022 30.18 851 25.13 12.1 53.7 62 5.1 41.1
01:50 1022 30.18 851 25.13 12 53.6 62 5 40.9
01:55 1022 30.18 851 25.13 12.1 53.7 60 4.7 40.4
02:00 1022 30.18 851 25.13 12.1 53.7 61 4.7 40.5
02:05 1022 30.18 851 25.13 12.1 53.7 61 4.8 40.7
02:10 1022 30.18 851 25.13 12.1 53.9 60 4.7 40.4
02:15 1022 30.18 851 25.13 12.3 54.1 60 4.7 40.4
02:20 1022 30.18 851 25.13 12.2 54 60 4.7 40.4
02:25 1022 30.18 851 25.13 12 53.6 61 4.7 40.5
02:30 1022 30.18 851 25.13 11.8 53.2 61 4.6 40.3
02:35 1022 30.18 851 25.13 11.8 53.3 61 4.6 40.3
02:40 1022 30.18 851 25.13 12 53.5 60 4.4 40
02:45 1022 30.18 851 25.13 12 53.7 61 4.8 40.7
02:50 1022 30.18 851 25.13 11.8 53.2 61 4.6 40.2
02:55 1022 30.18 851 25.13 11.6 53 62 4.7 40.4
03:00 1022 30.18 851 25.13 11.7 53 61 4.5 40.1
03:05 1022 30.18 851 25.13 11.7 53.1 62 4.6 40.4
03:10 1022 30.18 851 25.13 11.7 53.1 61 4.6 40.2
03:15 1022 30.18 851 25.13 11.5 52.7 62 4.6 40.4
03:20 1022 30.18 851 25.13 11.3 52.4 63 4.6 40.3
03:25 1022 30.18 851 25.13 11.2 52.1 63 4.5 40.1
03:30 1022 30.18 851 25.13 11.1 52 64 4.5 40.1
03:35 1022 30.18 851 25.13 11.2 52.1 63 4.4 39.9
03:40 1022 30.18 851 25.13 11.3 52.3 63 4.5 40.1
03:45 1022 30.18 851 25.13 11.3 52.3 63 4.5 40
03:50 1022 30.18 851 25.13 11.3 52.3 62 4.4 39.9
03:55 1022 30.18 851 25.13 11.3 52.3 62 4.4 39.9
04:00 1022 30.18 851 25.13 11.4 52.5 62 4.4 39.9
04:05 1022 30.18 851 25.13 11.5 52.7 61 4.4 39.9
04:10 1022 30.18 851 25.13 11.3 52.3 63 4.5 40
04:15 1022 30.18 851 25.13 11.2 52.1 63 4.4 40
04:20 1022 30.18 851 25.13 11.3 52.3 62 4.4 39.9
04:25 1022 30.18 851 25.13 11.3 52.4 63 4.6 40.2
04:30 1022 30.18 851 25.13 11.3 52.3 62 4.4 39.9
04:35 1022 30.18 851 25.13 11.3 52.3 64 4.7 40.4
04:40 1022 30.18 851 25.13 10.2 50.4 68 4.7 40.4
04:45 1022 30.18 851 25.13 10.2 50.3 65 4 39.2
04:50 1022 30.18 851 25.13 10.6 51 65 4.4 39.9
04:55 1022 30.18 851 25.13 10.6 51 64 4.1 39.3
05:00 1022 30.18 851 25.13 11.2 52.2 63 4.4 39.9
05:05 1022 30.18 851 25.13 11.2 52.1 62 4.2 39.6
05:10 1022 30.18 851 25.13 11.7 53 59 4.1 39.4
05:15 1022 30.18 851 25.13 12 53.6 59 4.2 39.6
05:20 1022 30.18 851 25.13 11.7 53 60 4.3 39.7
05:25 1022 30.18 851 25.13 11.6 52.9 60 4.2 39.6
05:30 1022 30.18 851 25.13 11.4 52.6 61 4.2 39.5
05:35 1022 30.18 851 25.13 11.3 52.3 61 4.1 39.4
05:40 1022 30.18 851 25.13 11.2 52.2 63 4.4 39.9
05:45 1022 30.18 851 25.13 10.7 51.3 65 4.4 40
05:50 1022 30.18 851 25.13 10.4 50.7 66 4.4 40
05:55 1022 30.18 851 25.13 10.1 50.1 67 4.2 39.6
06:00 1022 30.18 851 25.13 10.3 50.5 63 3.7 38.7
06:05 1022 30.18 851 25.13 10.9 51.7 62 4.1 39.3
06:10 1022 30.18 851 25.13 11 51.8 62 4.1 39.4
06:15 1022 30.18 851 25.13 11.1 51.9 62 4.2 39.5
06:20 1022 30.18 851 25.13 10.8 51.4 64 4.3 39.7
06:25 1022 30.18 851 25.13 10.6 51.2 64 4.1 39.4
06:30 1022 30.18 851 25.13 10.6 51.1 64 4.2 39.6
06:35 1022 30.18 851 25.13 10.5 50.8 65 4.2 39.5
06:40 1022 30.18 851 25.13 10.3 50.5 65 4 39.1
06:45 1022 30.18 851 25.13 10.5 50.9 64 4 39.2
06:50 1022 30.18 851 25.13 10.6 51.2 64 4.1 39.4
06:55 1022 30.18 851 25.13 10.9 51.5 61 3.8 38.8
07:00 1022 30.18 851 25.13 11.2 52.1 61 4.1 39.4
07:05 1022 30.18 851 25.13 11.3 52.3 61 4 39.2
07:10 1022 30.18 851 25.13 11.3 52.3 61 4 39.2
07:15 1022 30.18 851 25.13 11.3 52.3 61 4.2 39.5
07:20 1022 30.18 851 25.13 11.2 52.1 62 4.3 39.7
07:25 1022 30.18 851 25.13 11 51.7 63 4.3 39.8
07:30 1022 30.18 851 25.13 10.9 51.7 63 4.3 39.7
07:35 1022 30.18 851 25.13 11.1 52.1 63 4.4 39.9
07:40 1022 30.18 851 25.13 11.5 52.7 61 4.3 39.7
07:45 1022 30.18 851 25.13 11.7 53.1 61 4.5 40.1
07:50 1022 30.18 851 25.13 11.7 53.1 61 4.4 40
07:55 1022 30.18 851 25.13 11.9 53.3 61 4.6 40.2
08:00 1022 30.18 851 25.13 11.7 53 62 4.6 40.3
08:05 1022 30.18 851 25.13 11.7 53 61 4.5 40.1
08:10 1021 30.15 851 25.13 11.7 53 62 4.6 40.3
08:15 1021 30.15 851 25.13 11.8 53.3 62 4.8 40.6
08:20 1021 30.15 851 25.13 12.1 53.9 59 4.5 40.1
08:25 1021 30.15 851 25.13 12.8 55 58 4.8 40.7
08:30 1021 30.15 851 25.13 13.1 55.6 58 5.1 41.2
08:35 1021 30.15 851 25.13 13.4 56.2 57 5.1 41.2
08:40 1021 30.15 850 25.1 13.7 56.7 57 5.4 41.7
08:45 1021 30.15 850 25.1 14 57.3 56 5.4 41.8
08:50 1021 30.15 850 25.1 14.6 58.2 54 5.4 41.7
08:55 1021 30.15 850 25.1 14.6 58.2 54 5.5 41.9
09:00 1021 30.15 851 25.13 15.3 59.6 51 5.4 41.8
09:05 1021 30.15 851 25.13 16.1 61.1 49 5.5 41.8
09:10 1021 30.15 851 25.13 17 62.6 47 5.6 42.1
09:15 1021 30.15 851 25.13 17.6 63.6 45 5.6 42
09:20 1021 30.15 850 25.1 18 64.4 45 5.9 42.6
09:25 1021 30.15 850 25.1 18.7 65.7 41 5.3 41.5
09:30 1021 30.15 850 25.1 19 66.3 40 5.2 41.3
09:35 1021 30.15 850 25.1 18.7 65.6 42 5.8 42.4
09:40 1021 30.15 850 25.1 18.6 65.4 42 5.6 42
09:45 1021 30.15 850 25.1 18.7 65.6 41 5.3 41.5
09:50 1021 30.15 850 25.1 18.7 65.6 40 4.9 40.9
09:55 1021 30.15 850 25.1 19.2 66.5 39 5.1 41.1
10:00 1021 30.15 850 25.1 19.8 67.7 37 4.9 40.9
10:05 1021 30.15 850 25.1 19.8 67.7 38 5.4 41.7
10:10 1021 30.15 850 25.1 19.9 67.8 41 6.4 43.5
10:15 1021 30.15 850 25.1 19.3 66.8 39 5.3 41.5
10:20 1021 30.15 850 25.1 20.1 68.1 37 5.1 41.2
10:25 1021 30.15 850 25.1 20.3 68.6 39 6.1 42.9
10:30 1021 30.15 850 25.1 20.8 69.4 35 4.7 40.5
10:35 1021 30.15 850 25.1 20.1 68.1 38 5.5 42
10:40 1021 30.15 850 25.1 19.5 67.2 38 5.1 41.2
10:45 1021 30.15 850 25.1 20 68.1 39 5.9 42.7
10:50 1021 30.15 850 25.1 20.7 69.2 35 5 41
10:55 1021 30.15 850 25.1 20.2 68.3 35 4.6 40.3
11:00 1021 30.15 850 25.1 20.8 69.4 35 4.9 40.9
11:05 1020 30.12 850 25.1 21.3 70.3 35 5.6 42
11:10 1020 30.12 850 25.1 20.9 69.6 36 5.6 42
11:15 1020 30.12 850 25.1 20.4 68.8 35 4.7 40.4
11:20 1020 30.12 850 25.1 20.8 69.5 33 4 39.1
11:25 1020 30.12 849 25.07 21.4 70.6 33 4.8 40.6
11:30 1020 30.12 849 25.07 21.9 71.3 34 5.5 41.8
11:35 1020 30.12 849 25.07 21.7 71.1 32 4.5 40.1
11:40 1020 30.12 849 25.07 22.4 72.3 32 5 40.9
11:45 1020 30.12 849 25.07 22.8 73.1 29 4 39.2
11:50 1020 30.12 849 25.07 22.5 72.5 31 4.7 40.5
11:55 1020 30.12 849 25.07 22.8 73 29 4.2 39.5
12:00 1020 30.12 849 25.07 22.3 72.2 31 4.5 40.2
12:05 1020 30.12 849 25.07 21.9 71.4 31 4.1 39.4
12:10 1020 30.12 849 25.07 23.2 73.8 28 3.9 39
12:15 1020 30.12 849 25.07 23.8 74.8 28 4.2 39.5
12:20 1019 30.09 849 25.07 24.3 75.7 27 4.3 39.7
12:25 1019 30.09 849 25.07 23.4 74.2 28 3.9 39
12:30 1019 30.09 849 25.07 22.6 72.7 28 3.6 38.5
12:35 1019 30.09 849 25.07 24 75.1 25 3.1 37.6
12:40 1019 30.09 849 25.07 24.6 76.3 25 3.5 38.3
12:45 1019 30.09 848 25.04 25.5 77.8 23 2.9 37.2
12:50 1019 30.09 848 25.04 25.3 77.6 25 4.3 39.7
12:55 1019 30.09 848 25.04 24.5 76 25 3.4 38.2
13:00 1019 30.09 848 25.04 25.2 77.4 23 3 37.4
13:05 1019 30.09 848 25.04 26 78.7 22 3 37.4
13:10 1019 30.09 848 25.04 25.2 77.4 25 4.2 39.5
13:15 1019 30.09 848 25.04 24.5 76.1 25 3.7 38.6
13:20 1019 30.09 848 25.04 24.9 76.9 24 3.5 38.3
13:25 1019 30.09 848 25.04 25.9 78.5 23 3.6 38.5
13:30 1018 30.06 848 25.04 25.7 78.3 25 4.4 39.8
13:35 1018 30.06 848 25.04 25.3 77.5 25 4 39.2
13:40 1018 30.06 848 25.04 26.1 78.9 23 3.4 38.1
13:45 1018 30.06 847 25.01 26.6 79.8 22 3.6 38.4
13:50 1018 30.06 847 25.01 26.2 79.2 23 3.8 38.9
13:55 1018 30.06 847 25.01 25.6 78.1 24 3.7 38.7
14:00 1018 30.06 847 25.01 25 76.9 23 2.9 37.2
14:05 1018 30.06 847 25.01 25.2 77.4 24 3.4 38.1
14:10 1018 30.06 847 25.01 25.6 78 24 3.7 38.7
14:15 1018 30.06 847 25.01 25.8 78.5 23 3.3 38
14:20 1018 30.06 847 25.01 26.4 79.5 21 2.5 36.6
14:25 1018 30.06 847 25.01 27.1 80.8 22 3.7 38.7
14:30 1017 30.03 847 25.01 26.6 79.8 23 3.8 38.8
14:35 1017 30.03 847 25.01 27 80.7 21 3.1 37.6
14:40 1017 30.03 847 25.01 26.7 80 22 3.8 38.8
14:45 1017 30.03 847 25.01 26.5 79.7 22 3.3 38
14:50 1017 30.03 846 24.98 27.2 80.9 20 2.6 36.7
14:55 1017 30.03 846 24.98 28 82.5 20 3 37.4
15:00 1017 30.03 846 24.98 28.8 83.8 19 3.5 38.4
15:05 1017 30.03 846 24.98 29.5 85.1 19 3.9 39
15:10 1017 30.03 846 24.98 28.8 83.8 20 3.6 38.5
15:15 1017 30.03 846 24.98 28 82.4 21 3.6 38.5
15:20 1017 30.03 846 24.98 27.9 82.2 20 3.3 38
15:25 1017 30.03 846 24.98 27.9 82.3 20 3 37.5
15:30 1017 30.03 846 24.98 28.4 83 19 2.6 36.7
15:35 1017 30.03 846 24.98 29.3 84.7 18 2.8 37.1
15:40 1016 30 846 24.98 28.8 83.8 19 3.1 37.6
15:45 1016 30 846 24.98 28.6 83.4 20 3.4 38.2
15:50 1016 30 846 24.98 28.7 83.7 19 3.3 37.9
15:55 1016 30 845 24.95 28.7 83.7 20 3.6 38.4
16:00 1016 30 845 24.95 28.7 83.6 19 3.3 38
16:05 1016 30 845 24.95 28.5 83.3 19 3.3 37.9
16:10 1016 30 845 24.95 28.6 83.4 20 3.4 38.2
16:15 1016 30 845 24.95 28.7 83.6 19 3.1 37.5
16:20 1016 30 845 24.95 28.5 83.2 20 3.4 38.2
16:25 1016 30 845 24.95 27.7 81.9 20 2.7 36.9
16:30 1016 30 845 24.95 27.9 82.2 20 3.1 37.5
16:35 1016 30 845 24.95 28.3 83 20 3.5 38.3
16:40 1016 30 845 24.95 28.5 83.3 19 3.3 37.9
16:45 1016 30 845 24.95 28.3 83 19 2.9 37.3
16:50 1016 30 845 24.95 27.8 82 20 3.4 38.1
16:55 1015 29.97 845 24.95 27.5 81.5 21 3.6 38.6
17:00 1015 29.97 845 24.95 27.8 82.1 20 3.2 37.8
17:05 1015 29.97 845 24.95 28 82.3 19 2.5 36.5
17:10 1015 29.97 845 24.95 28.6 83.5 18 2.3 36.2
17:15 1015 29.97 844 24.92 28 82.4 20 3.5 38.3
17:20 1015 29.97 844 24.92 27.9 82.2 19 2.5 36.5
17:25 1015 29.97 844 24.92 28 82.5 19 2.5 36.5
17:30 1015 29.97 844 24.92 28.2 82.7 19 3 37.3
17:35 1015 29.97 844 24.92 27.9 82.1 20 3 37.3
17:40 1015 29.97 844 24.92 27.6 81.7 20 2.7 36.8
17:45 1015 29.97 844 24.92 28.3 82.9 19 2.7 36.9
17:50 1015 29.97 844 24.92 28.5 83.3 18 1.9 35.4
17:55 1015 29.97 844 24.92 28.8 83.9 18 2.3 36.2
18:00 1015 29.97 844 24.92 28.1 82.6 18 2.1 35.8
18:05 1015 29.97 844 24.92 28.1 82.7 19 2.3 36.1
18:10 1015 29.97 844 24.92 28.3 82.9 18 2.1 35.8
18:15 1015 29.97 844 24.92 28.2 82.7 17 1.5 34.6
18:20 1015 29.97 844 24.92 28 82.5 17 1.2 34.2
18:25 1015 29.97 844 24.92 28.1 82.6 19 2.2 36
18:30 1015 29.97 844 24.92 27.8 82.1 19 2.2 36
18:35 1015 29.97 844 24.92 27.6 81.7 19 1.9 35.5
18:40 1015 29.97 844 24.92 27.3 81.2 18 1.5 34.7
18:45 1014 29.94 844 24.92 27.2 81 18 1.2 34.2
18:50 1014 29.94 844 24.92 27.2 81 18 1.4 34.5
18:55 1014 29.94 844 24.92 27.2 81 19 1.6 34.9
19:00 1014 29.94 843 24.89 27.1 80.7 20 2.4 36.2
19:05 1014 29.94 843 24.89 26.9 80.5 21 2.9 37.2
19:10 1014 29.94 843 24.89 26.8 80.3 21 3 37.3
19:15 1014 29.94 843 24.89 26.8 80.2 21 3.2 37.7
19:20 1014 29.94 843 24.89 26.7 80.1 22 3.4 38.2
19:25 1014 29.94 843 24.89 26.7 80.1 22 3.2 37.8
19:30 1014 29.94 843 24.89 26.7 80.1 21 3 37.4
19:35 1014 29.94 843 24.89 26.7 80.1 23 4 39.2
19:40 1014 29.94 843 24.89 26.5 79.7 23 4.3 39.7
19:45 1014 29.94 843 24.89 26.1 79 25 4.6 40.4
19:50 1014 29.94 843 24.89 25.8 78.5 30 7.3 45.1
19:55 1014 29.94 843 24.89 25.5 77.9 32 8 46.5
20:00 1014 29.94 843 24.89 24.5 76.2 35 8.1 46.6
20:05 1014 29.94 843 24.89 23.3 73.9 38 8.3 47
20:10 1014 29.94 843 24.89 22.5 72.5 38 7.7 45.8
20:15 1014 29.94 843 24.89 22 71.6 40 7.9 46.2
20:20 1014 29.94 843 24.89 21.8 71.3 38 6.9 44.5
20:25 1014 29.94 843 24.89 21.6 70.9 37 6.4 43.6
20:30 1014 29.94 843 24.89 21.4 70.6 38 6.7 44.1
20:35 1014 29.94 843 24.89 20.9 69.7 41 7.5 45.5
20:40 1014 29.94 843 24.89 20.5 68.8 43 7.8 46
20:45 1014 29.94 843 24.89 19.9 67.8 44 7.5 45.6
20:50 1014 29.94 843 24.89 19.6 67.2 43 6.8 44.2
20:55 1014 29.94 843 24.89 19.7 67.5 41 6.4 43.5
21:00 1014 29.94 843 24.89 20.2 68.3 34 4.1 39.4
21:05 1014 29.94 844 24.92 20.4 68.7 36 4.8 40.6
21:10 1014 29.94 843 24.89 20.4 68.6 34 4.1 39.3
21:15 1014 29.94 843 24.89 20.8 69.5 35 4.9 40.9
21:20 1014 29.94 843 24.89 20.5 68.8 34 4.1 39.4
21:25 1014 29.94 843 24.89 20.4 68.6 35 4.4 39.9
21:30 1014 29.94 843 24.89 20.5 68.8 37 5.5 42
21:35 1014 29.94 843 24.89 20.3 68.5 33 3.7 38.7
21:40 1014 29.94 843 24.89 21 69.8 30 3.2 37.7
21:45 1014 29.94 843 24.89 21.7 71.1 32 4.5 40.1
21:50 1014 29.94 843 24.89 20.7 69.2 35 4.7 40.5
21:55 1014 29.94 843 24.89 19.6 67.3 37 4.5 40.1
22:00 1014 29.94 843 24.89 19.3 66.8 36 4.1 39.4
22:05 1014 29.94 843 24.89 19.9 67.8 34 3.6 38.5
22:10 1014 29.94 843 24.89 19.7 67.5 33 3.3 38
22:15 1014 29.94 843 24.89 20 68 34 3.8 38.8
22:20 1014 29.94 843 24.89 19.4 66.9 35 3.7 38.6
22:25 1014 29.94 843 24.89 19.3 66.7 34 3.2 37.8
22:30 1014 29.94 843 24.89 19.5 67.1 34 3.4 38.2
22:35 1014 29.94 843 24.89 19.4 66.8 34 3.2 37.7
22:40 1014 29.94 843 24.89 19.2 66.5 34 3 37.5
22:45 1014 29.94 843 24.89 19.4 67 31 1.9 35.3
22:50 1014 29.94 843 24.89 20.3 68.6 31 2.9 37.1
22:55 1014 29.94 843 24.89 19.6 67.3 34 3.4 38
23:00 1014 29.94 843 24.89 19.1 66.3 34 2.8 37
23:05 1014 29.94 843 24.89 19.1 66.3 34 3 37.5
23:10 1014 29.94 843 24.89 18.8 65.9 35 3.2 37.7
23:15 1014 29.94 843 24.89 18.6 65.4 35 2.9 37.2
23:20 1014 29.94 843 24.89 18.7 65.6 34 2.5 36.5
23:25 1014 29.94 843 24.89 18.9 65.9 33 2.3 36.2
23:30 1013 29.91 843 24.89 18.9 66 34 2.9 37.3
23:35 1013 29.91 843 24.89 18.9 66.1 37 3.9 39.1
23:40 1013 29.91 843 24.89 18.5 65.2 33 1.9 35.5
23:45 1013 29.91 843 24.89 18.6 65.5 32 1.7 35.1
23:50 1013 29.91 843 24.89 19 66.2 33 2.3 36.2
23:55 1013 29.91 843 24.89 19 66.2 34 2.9 37.2
24:00 1013 29.91 843 24.89 19.1 66.3 34 2.8 37.1